createdAt,value
2018-12-15T00:01:38.284Z,70.45
2018-12-15T00:04:09.917Z,71.43
2018-12-15T00:06:57.276Z,72.70
2018-12-15T00:09:27.042Z,72.25
2018-12-15T00:11:56.761Z,72.87
2018-12-15T00:14:26.541Z,72.30
2018-12-15T00:16:56.349Z,73.24
2018-12-15T00:19:26.037Z,73.16
2018-12-15T00:21:55.772Z,71.16
2018-12-15T00:24:25.447Z,73.84
2018-12-15T00:26:55.137Z,72.56
2018-12-15T00:29:24.945Z,73.04
2018-12-15T00:31:54.704Z,71.52
2018-12-15T00:34:24.379Z,72.78
2018-12-15T00:36:54.069Z,73.65
2018-12-15T00:39:23.813Z,72.78
2018-12-15T00:41:53.526Z,73.88
2018-12-15T00:44:23.443Z,73.03
2018-12-15T00:46:53.182Z,71.75
2018-12-15T00:49:22.917Z,71.97
2018-12-15T00:51:52.670Z,71.57
2018-12-15T00:54:22.430Z,72.80
2018-12-15T00:56:52.273Z,72.66
2018-12-15T00:59:21.941Z,71.52
2018-12-15T01:01:52.222Z,71.72
2018-12-15T01:04:21.890Z,72.25
2018-12-15T01:06:51.629Z,73.45
2018-12-15T01:09:21.457Z,73.90
2018-12-15T01:11:51.285Z,74.44
2018-12-15T01:14:21.881Z,74.48
2018-12-15T01:16:51.597Z,73.31
2018-12-15T01:19:21.378Z,74.01
2018-12-15T01:21:51.108Z,74.42
2018-12-15T01:24:21.024Z,72.77
2018-12-15T01:26:50.700Z,74.29
2018-12-15T01:29:20.649Z,74.48
2018-12-15T01:31:50.432Z,74.13
2018-12-15T01:34:20.193Z,72.87
2018-12-15T01:36:49.869Z,73.40
2018-12-15T01:39:20.597Z,72.15
2018-12-15T01:41:50.382Z,72.71
2018-12-15T01:44:20.199Z,71.40
2018-12-15T01:46:49.929Z,71.01
2018-12-15T01:49:19.836Z,71.33
2018-12-15T01:51:49.508Z,67.66
2018-12-15T01:54:19.211Z,69.22
2018-12-15T01:56:48.929Z,71.10
2018-12-15T01:59:18.613Z,72.57
2018-12-15T02:01:48.277Z,72.62
2018-12-15T02:04:17.988Z,72.99
2018-12-15T02:06:47.745Z,72.91
2018-12-15T02:09:17.440Z,74.04
2018-12-15T02:11:47.114Z,73.19
2018-12-15T02:14:16.780Z,72.12
2018-12-15T02:16:46.660Z,73.12
2018-12-15T02:19:16.323Z,72.79
2018-12-15T02:21:46.009Z,72.48
2018-12-15T02:24:15.667Z,70.83
2018-12-15T02:26:45.469Z,73.93
2018-12-15T02:29:16.273Z,73.48
2018-12-15T02:31:45.944Z,73.32
2018-12-15T02:34:15.637Z,73.68
2018-12-15T02:36:45.315Z,73.37
2018-12-15T02:39:15.095Z,71.64
2018-12-15T02:41:47.366Z,73.74
2018-12-15T02:44:16.702Z,72.73
2018-12-15T02:46:46.460Z,72.98
2018-12-15T02:49:16.214Z,74.45
2018-12-15T02:51:45.945Z,73.96
2018-12-15T02:54:16.557Z,75.26
2018-12-15T02:56:46.406Z,72.96
2018-12-15T02:59:16.193Z,72.79
2018-12-15T03:01:45.880Z,72.84
2018-12-15T03:04:15.617Z,71.41
2018-12-15T03:06:45.446Z,72.66
2018-12-15T03:09:15.272Z,73.88
2018-12-15T03:11:44.951Z,72.42
2018-12-15T03:14:14.690Z,74.30
2018-12-15T03:16:55.684Z,74.38
2018-12-15T03:19:25.353Z,76.34
2018-12-15T03:21:55.189Z,74.81
2018-12-15T03:24:24.856Z,74.19
2018-12-15T03:26:54.628Z,74.24
2018-12-15T03:29:24.304Z,73.03
2018-12-15T03:31:54.053Z,74.73
2018-12-15T03:34:23.859Z,76.33
2018-12-15T03:36:53.528Z,73.78
2018-12-15T03:39:23.400Z,75.40
2018-12-15T03:41:53.184Z,74.13
2018-12-15T03:44:22.962Z,74.35
2018-12-15T03:46:52.642Z,74.52
2018-12-15T03:49:22.492Z,73.92
2018-12-15T03:51:52.422Z,73.66
2018-12-15T03:54:22.432Z,73.08
2018-12-15T03:56:52.247Z,74.74
2018-12-15T03:59:22.156Z,74.66
2018-12-15T04:01:51.999Z,74.68
2018-12-15T04:04:21.824Z,74.45
2018-12-15T04:06:51.534Z,73.88
2018-12-15T04:09:21.386Z,73.72
2018-12-15T04:11:51.065Z,74.21
2018-12-15T04:14:20.797Z,74.46
2018-12-15T04:16:50.528Z,73.26
2018-12-15T04:19:20.295Z,72.63
2018-12-15T04:21:50.114Z,72.95
2018-12-15T04:24:19.885Z,70.81
2018-12-15T04:26:49.565Z,71.68
2018-12-15T04:29:21.283Z,72.63
2018-12-15T04:31:51.078Z,71.11
2018-12-15T04:34:20.778Z,72.97
2018-12-15T04:36:50.629Z,72.24
2018-12-15T04:39:20.306Z,69.61
2018-12-15T04:41:50.226Z,70.16
2018-12-15T04:44:20.330Z,68.77
2018-12-15T04:46:50.689Z,69.45
2018-12-15T04:49:20.476Z,69.95
2018-12-15T04:51:51.256Z,71.01
2018-12-15T04:54:20.917Z,70.09
2018-12-15T04:56:50.734Z,68.79
2018-12-15T04:59:20.380Z,70.68
2018-12-15T05:01:50.225Z,68.42
2018-12-15T05:04:19.989Z,69.89
2018-12-15T05:06:49.781Z,69.19
2018-12-15T05:09:19.498Z,70.06
2018-12-15T05:11:49.217Z,69.91
2018-12-15T05:14:19.056Z,70.99
2018-12-15T05:16:48.813Z,70.69
2018-12-15T05:19:18.531Z,68.91
2018-12-15T05:21:48.509Z,69.96
2018-12-15T05:24:18.371Z,69.23
2018-12-15T05:26:48.388Z,71.18
2018-12-15T05:29:18.150Z,70.89
2018-12-15T05:31:47.825Z,70.81
2018-12-15T05:34:17.540Z,70.52
2018-12-15T05:36:47.237Z,70.42
2018-12-15T05:39:17.028Z,71.51
2018-12-15T05:41:46.800Z,72.08
2018-12-15T05:44:16.465Z,73.15
2018-12-15T05:46:46.215Z,73.29
2018-12-15T05:49:15.926Z,73.12
2018-12-15T05:51:45.674Z,72.75
2018-12-15T05:54:15.348Z,71.75
2018-12-15T05:56:45.054Z,71.91
2018-12-15T05:59:14.820Z,72.67
2018-12-15T06:01:44.491Z,73.84
2018-12-15T06:04:14.212Z,72.71
2018-12-15T06:06:43.973Z,73.36
2018-12-15T06:09:13.665Z,72.06
2018-12-15T06:11:43.353Z,72.35
2018-12-15T06:14:13.258Z,73.75
2018-12-15T06:16:42.931Z,73.20
2018-12-15T06:19:12.616Z,74.64
2018-12-15T06:21:42.289Z,73.62
2018-12-15T06:24:12.068Z,74.08
2018-12-15T06:26:41.958Z,73.57
2018-12-15T06:29:11.645Z,72.44
2018-12-15T06:31:41.377Z,72.86
2018-12-15T06:34:11.131Z,72.87
2018-12-15T06:36:41.105Z,73.64
2018-12-15T06:39:10.785Z,74.27
2018-12-15T06:41:40.452Z,73.55
2018-12-15T06:44:10.167Z,73.36
2018-12-15T06:46:39.838Z,74.27
2018-12-15T06:49:09.573Z,73.39
2018-12-15T06:51:39.293Z,74.69
2018-12-15T06:54:09.006Z,75.79
2018-12-15T06:56:38.730Z,75.86
2018-12-15T06:59:08.815Z,73.81
2018-12-15T07:01:38.489Z,73.93
2018-12-15T07:04:08.273Z,74.81
2018-12-15T07:06:38.113Z,75.17
2018-12-15T07:09:07.812Z,74.91
2018-12-15T07:11:39.060Z,74.47
2018-12-15T07:14:08.753Z,74.90
2018-12-15T07:16:38.429Z,74.81
2018-12-15T07:19:08.217Z,74.87
2018-12-15T07:21:38.049Z,75.58
2018-12-15T07:24:07.920Z,74.13
2018-12-15T07:26:37.610Z,74.15
2018-12-15T07:29:07.408Z,72.54
2018-12-15T07:31:37.129Z,74.74
2018-12-15T07:34:06.912Z,75.55
2018-12-15T07:36:36.721Z,74.74
2018-12-15T07:39:07.871Z,73.67
2018-12-15T07:41:38.016Z,74.86
2018-12-15T07:44:07.800Z,73.83
2018-12-15T07:46:37.492Z,75.23
2018-12-15T07:49:07.173Z,74.20
2018-12-15T07:51:36.951Z,74.86
2018-12-15T07:54:06.686Z,74.48
2018-12-15T07:56:36.399Z,72.52
2018-12-15T07:59:06.222Z,72.74
2018-12-15T08:01:35.884Z,73.63
2018-12-15T08:04:05.668Z,74.56
2018-12-15T08:06:35.436Z,74.09
2018-12-15T08:09:06.746Z,73.17
2018-12-15T08:11:42.784Z,72.86
2018-12-15T08:14:13.221Z,72.92
2018-12-15T08:16:43.101Z,72.22
2018-12-15T08:19:12.790Z,73.30
2018-12-15T08:21:42.569Z,72.28
2018-12-15T08:24:12.348Z,71.52
2018-12-15T08:26:42.337Z,73.09
2018-12-15T08:29:12.005Z,71.92
2018-12-15T08:31:41.792Z,71.29
2018-12-15T08:34:11.556Z,70.86
2018-12-15T08:36:41.312Z,72.32
2018-12-15T08:39:11.074Z,70.86
2018-12-15T08:41:41.001Z,70.29
2018-12-15T08:44:10.667Z,68.63
2018-12-15T08:46:40.423Z,68.20
2018-12-15T08:49:10.169Z,68.73
2018-12-15T08:51:39.852Z,68.81
2018-12-15T08:54:09.544Z,68.57
2018-12-15T08:56:39.200Z,67.95
2018-12-15T08:59:08.929Z,68.90
2018-12-15T09:01:40.939Z,68.36
2018-12-15T09:04:10.641Z,68.44
2018-12-15T09:06:40.328Z,69.06
2018-12-15T09:09:10.038Z,67.87
2018-12-15T09:11:39.697Z,66.65
2018-12-15T09:14:09.421Z,67.23
2018-12-15T09:16:39.292Z,66.31
2018-12-15T09:19:11.420Z,67.55
2018-12-15T09:21:40.777Z,68.11
2018-12-15T09:24:10.498Z,67.19
2018-12-15T09:26:40.201Z,67.83
2018-12-15T09:29:09.943Z,66.27
2018-12-15T09:31:41.648Z,67.35
2018-12-15T09:34:11.532Z,67.20
2018-12-15T09:36:41.205Z,66.38
2018-12-15T09:39:11.089Z,64.91
2018-12-15T09:41:40.757Z,65.59
2018-12-15T09:44:10.478Z,64.92
2018-12-15T09:46:40.212Z,64.89
2018-12-15T09:49:10.066Z,64.92
2018-12-15T09:51:39.765Z,64.29
2018-12-15T09:54:09.495Z,64.75
2018-12-15T09:56:39.276Z,64.36
2018-12-15T09:59:09.164Z,65.25
2018-12-15T10:01:38.950Z,64.14
2018-12-15T10:04:08.697Z,65.76
2018-12-15T10:06:38.537Z,64.43
2018-12-15T10:09:08.245Z,61.97
2018-12-15T10:11:39.148Z,63.36
2018-12-15T10:14:10.630Z,62.51
2018-12-15T10:16:40.508Z,62.90
2018-12-15T10:19:10.287Z,61.93
2018-12-15T10:21:40.049Z,63.03
2018-12-15T10:24:09.832Z,63.50
2018-12-15T10:26:39.488Z,62.59
2018-12-15T10:29:13.378Z,62.87
2018-12-15T10:31:48.448Z,63.65
2018-12-15T10:34:18.129Z,62.05
2018-12-15T10:36:48.037Z,62.51
2018-12-15T10:39:17.716Z,63.64
2018-12-15T10:41:47.585Z,63.68
2018-12-15T10:44:17.509Z,63.15
2018-12-15T10:46:47.453Z,64.64
2018-12-15T10:49:19.105Z,63.76
2018-12-15T10:51:48.812Z,64.13
2018-12-15T10:54:18.600Z,63.42
2018-12-15T10:56:48.617Z,62.58
2018-12-15T10:59:18.337Z,61.85
2018-12-15T11:01:48.345Z,64.30
2018-12-15T11:04:18.448Z,63.95
2018-12-15T11:06:48.538Z,63.80
2018-12-15T11:09:18.233Z,63.54
2018-12-15T11:11:48.237Z,62.04
2018-12-15T11:14:18.210Z,62.90
2018-12-15T11:16:48.219Z,62.65
2018-12-15T11:19:18.692Z,62.75
2018-12-15T11:21:48.378Z,64.13
2018-12-15T11:24:18.161Z,63.71
2018-12-15T11:26:48.057Z,63.42
2018-12-15T11:29:18.781Z,63.32
2018-12-15T11:31:48.581Z,63.29
2018-12-15T11:34:18.312Z,61.89
2018-12-15T11:36:48.873Z,64.08
2018-12-15T11:39:18.728Z,62.80
2018-12-15T11:41:48.441Z,62.72
2018-12-15T11:44:18.189Z,61.90
2018-12-15T11:46:48.204Z,61.51
2018-12-15T11:49:18.629Z,61.62
2018-12-15T11:51:48.325Z,60.92
2018-12-15T11:54:18.933Z,62.38
2018-12-15T11:56:49.768Z,63.08
2018-12-15T11:59:19.493Z,62.82
2018-12-15T12:01:50.404Z,63.40
2018-12-15T12:04:20.226Z,61.49
2018-12-15T12:06:49.957Z,63.55
2018-12-15T12:09:19.672Z,63.84
2018-12-15T12:11:49.784Z,63.42
2018-12-15T12:14:20.708Z,63.98
2018-12-15T12:16:50.530Z,64.06
2018-12-15T12:19:20.369Z,63.19
2018-12-15T12:21:50.028Z,63.19
2018-12-15T12:24:19.756Z,62.04
2018-12-15T12:26:51.708Z,64.11
2018-12-15T12:29:21.416Z,63.04
2018-12-15T12:31:51.441Z,63.48
2018-12-15T12:34:21.265Z,64.04
2018-12-15T12:36:50.993Z,63.08
2018-12-15T12:39:20.725Z,63.96
2018-12-15T12:41:52.338Z,64.01
2018-12-15T12:44:22.065Z,62.45
2018-12-15T12:46:51.861Z,63.11
2018-12-15T12:49:22.309Z,64.63
2018-12-15T12:51:52.914Z,64.01
2018-12-15T12:54:23.104Z,64.89
2018-12-15T12:56:53.164Z,64.01
2018-12-15T12:59:22.920Z,62.88
2018-12-15T13:01:52.596Z,63.92
2018-12-15T13:04:22.317Z,63.48
2018-12-15T13:06:52.151Z,63.43
2018-12-15T13:09:22.000Z,63.09
2018-12-15T13:11:51.842Z,62.36
2018-12-15T13:14:21.869Z,64.44
2018-12-15T13:16:51.680Z,64.03
2018-12-15T13:19:21.393Z,63.98
2018-12-15T13:21:51.072Z,63.54
2018-12-15T13:24:20.841Z,62.58
2018-12-15T13:26:50.780Z,63.65
2018-12-15T13:29:20.561Z,65.11
2018-12-15T13:31:50.253Z,62.91
2018-12-15T13:34:19.976Z,63.10
2018-12-15T13:36:50.209Z,62.57
2018-12-15T13:39:20.100Z,63.70
2018-12-15T13:41:49.860Z,63.41
2018-12-15T13:44:20.109Z,64.37
2018-12-15T13:46:50.260Z,63.02
2018-12-15T13:49:20.393Z,65.04
2018-12-15T13:51:50.381Z,62.85
2018-12-15T13:54:20.218Z,63.40
2018-12-15T13:56:50.205Z,63.60
2018-12-15T13:59:19.897Z,64.45
2018-12-15T14:01:49.739Z,63.17
2018-12-15T14:04:19.420Z,63.48
2018-12-15T14:06:49.259Z,65.02
2018-12-15T14:09:19.073Z,64.45
2018-12-15T14:11:48.906Z,65.73
2018-12-15T14:14:18.645Z,64.20
2018-12-15T14:16:48.448Z,64.27
2018-12-15T14:19:18.447Z,63.18
2018-12-15T14:21:48.366Z,63.29
2018-12-15T14:24:18.063Z,63.63
2018-12-15T14:26:48.092Z,64.09
2018-12-15T14:29:17.965Z,64.75
2018-12-15T14:31:47.762Z,64.34
2018-12-15T14:34:17.825Z,63.55
2018-12-15T14:36:47.544Z,63.74
2018-12-15T14:39:17.401Z,64.79
2018-12-15T14:41:47.388Z,63.88
2018-12-15T14:44:17.073Z,64.88
2018-12-15T14:46:46.816Z,65.70
2018-12-15T14:49:16.612Z,63.14
2018-12-15T14:51:46.323Z,64.87
2018-12-15T14:54:16.120Z,65.06
2018-12-15T14:56:45.811Z,64.95
2018-12-15T14:59:15.544Z,65.70
2018-12-15T15:01:45.320Z,65.74
2018-12-15T15:04:14.989Z,67.13
2018-12-15T15:06:44.674Z,65.36
2018-12-15T15:09:14.486Z,65.82
2018-12-15T15:11:44.326Z,65.10
2018-12-15T15:14:14.141Z,65.19
2018-12-15T15:16:47.041Z,64.79
2018-12-15T15:19:16.809Z,65.17
2018-12-15T15:21:46.737Z,65.82
2018-12-15T15:24:16.537Z,65.54
2018-12-15T15:26:46.220Z,64.14
2018-12-15T15:29:16.013Z,64.52
2018-12-15T15:31:45.798Z,65.30
2018-12-15T15:34:15.477Z,64.21
2018-12-15T15:36:45.148Z,65.45
2018-12-15T15:39:15.228Z,64.44
2018-12-15T15:41:45.253Z,65.42
2018-12-15T15:44:14.988Z,64.42
2018-12-15T15:46:44.800Z,65.73
2018-12-15T15:49:15.561Z,64.43
2018-12-15T15:51:45.411Z,64.38
2018-12-15T15:54:15.426Z,65.07
2018-12-15T15:56:45.260Z,62.52
2018-12-15T15:59:14.925Z,63.87
2018-12-15T16:01:44.616Z,63.62
2018-12-15T16:04:14.414Z,63.66
2018-12-15T16:06:44.145Z,62.78
2018-12-15T16:09:14.042Z,64.18
2018-12-15T16:11:43.891Z,63.11
2018-12-15T16:14:13.623Z,63.56
2018-12-15T16:16:43.361Z,62.88
2018-12-15T16:19:13.208Z,64.14
2018-12-15T16:21:42.985Z,62.76
2018-12-15T16:24:12.793Z,63.53
2018-12-15T16:26:42.580Z,64.77
2018-12-15T16:29:12.306Z,64.06
2018-12-15T16:31:42.042Z,64.26
2018-12-15T16:34:11.870Z,63.63
2018-12-15T16:36:41.605Z,64.64
2018-12-15T16:39:11.354Z,65.76
2018-12-15T16:41:42.334Z,65.84
2018-12-15T16:44:12.314Z,64.73
2018-12-15T16:46:42.337Z,65.74
2018-12-15T16:49:12.039Z,64.26
2018-12-15T16:51:41.776Z,64.99
2018-12-15T16:54:11.453Z,65.15
2018-12-15T16:56:41.385Z,64.94
2018-12-15T16:59:11.065Z,66.27
2018-12-15T17:01:40.966Z,65.75
2018-12-15T17:04:10.709Z,64.39
2018-12-15T17:06:40.557Z,64.30
2018-12-15T17:09:10.330Z,64.57
2018-12-15T17:11:40.024Z,63.56
2018-12-15T17:14:09.753Z,64.29
2018-12-15T17:16:39.484Z,64.18
2018-12-15T17:19:09.333Z,65.17
2018-12-15T17:21:39.077Z,65.82
2018-12-15T17:24:08.813Z,65.57
2018-12-15T17:26:38.548Z,66.69
2018-12-15T17:29:08.454Z,66.55
2018-12-15T17:31:38.172Z,64.10
2018-12-15T17:34:08.164Z,65.05
2018-12-15T17:36:38.004Z,66.08
2018-12-15T17:39:08.094Z,66.29
2018-12-15T17:41:39.821Z,64.45
2018-12-15T17:44:10.026Z,66.72
2018-12-15T17:46:40.333Z,66.63
2018-12-15T17:49:10.110Z,67.76
2018-12-15T17:51:40.675Z,68.87
2018-12-15T17:54:10.462Z,68.73
2018-12-15T17:56:40.289Z,68.40
2018-12-15T17:59:10.080Z,68.46
2018-12-15T18:01:39.942Z,69.82
2018-12-15T18:04:09.625Z,69.56
2018-12-15T18:06:39.591Z,70.27
2018-12-15T18:09:09.329Z,71.63
2018-12-15T18:11:41.105Z,71.55
2018-12-15T18:14:10.938Z,72.00
2018-12-15T18:16:41.569Z,73.06
2018-12-15T18:19:11.537Z,72.41
2018-12-15T18:21:41.420Z,72.54
2018-12-15T18:24:11.253Z,73.63
2018-12-15T18:26:41.646Z,74.14
2018-12-15T18:29:11.522Z,73.88
2018-12-15T18:31:41.399Z,74.43
2018-12-15T18:34:11.152Z,75.01
2018-12-15T18:36:41.017Z,74.79
2018-12-15T18:39:10.833Z,75.53
2018-12-15T18:41:41.639Z,75.32
2018-12-15T18:44:12.548Z,75.98
2018-12-15T18:46:42.268Z,76.35
2018-12-15T18:49:11.949Z,75.14
2018-12-15T18:51:41.745Z,75.13
2018-12-15T18:54:11.553Z,75.11
2018-12-15T18:56:41.501Z,74.86
2018-12-15T18:59:11.408Z,76.37
2018-12-15T19:01:41.260Z,74.78
2018-12-15T19:04:10.940Z,75.69
2018-12-15T19:06:41.705Z,76.22
2018-12-15T19:09:11.528Z,74.83
2018-12-15T19:11:43.153Z,76.33
2018-12-15T19:14:13.029Z,76.81
2018-12-15T19:16:42.917Z,76.71
2018-12-15T19:19:12.626Z,75.94
2018-12-15T19:21:42.542Z,77.07
2018-12-15T19:24:12.421Z,77.23
2018-12-15T19:26:42.364Z,75.94
2018-12-15T19:29:12.065Z,75.19
2018-12-15T19:31:41.881Z,74.91
2018-12-15T19:34:17.348Z,75.10
2018-12-15T19:36:43.361Z,75.09
2018-12-15T19:39:13.261Z,75.92
2018-12-15T19:41:43.100Z,76.75
2018-12-15T19:44:13.008Z,77.21
2018-12-15T19:46:42.841Z,76.12
2018-12-15T19:49:12.620Z,78.49
2018-12-15T19:51:42.321Z,78.29
2018-12-15T19:54:11.999Z,77.33
2018-12-15T19:56:42.033Z,77.50
2018-12-15T19:59:14.417Z,77.34
2018-12-15T20:01:44.377Z,77.78
2018-12-15T20:04:14.108Z,78.72
2018-12-15T20:06:43.880Z,78.04
2018-12-15T20:09:13.707Z,77.91
2018-12-15T20:11:43.433Z,75.76
2018-12-15T20:14:13.300Z,72.79
2018-12-15T20:16:43.096Z,73.57
2018-12-15T20:19:12.977Z,72.03
2018-12-15T20:21:42.790Z,72.66
2018-12-15T20:24:12.664Z,71.83
2018-12-15T20:26:43.304Z,73.31
2018-12-15T20:29:13.206Z,73.42
2018-12-15T20:31:42.897Z,73.51
2018-12-15T20:34:12.835Z,72.81
2018-12-15T20:36:42.557Z,72.29
2018-12-15T20:39:12.253Z,73.18
2018-12-15T20:41:42.192Z,73.65
2018-12-15T20:44:12.057Z,74.39
2018-12-15T20:46:41.799Z,75.85
2018-12-15T20:49:11.540Z,75.56
2018-12-15T20:51:42.984Z,75.38
2018-12-15T20:54:18.312Z,76.03
2018-12-15T20:56:48.030Z,77.15
2018-12-15T20:59:17.860Z,75.80
2018-12-15T21:01:47.548Z,74.82
2018-12-15T21:04:17.241Z,76.11
2018-12-15T21:06:46.929Z,76.32
2018-12-15T21:09:16.685Z,76.23
2018-12-15T21:11:46.595Z,76.78
2018-12-15T21:14:16.316Z,76.77
2018-12-15T21:16:46.036Z,76.49
2018-12-15T21:19:15.841Z,77.32
2018-12-15T21:21:49.523Z,75.58
2018-12-15T21:24:18.344Z,74.44
2018-12-15T21:26:48.116Z,74.20
2018-12-15T21:29:17.877Z,72.47
2018-12-15T21:31:47.828Z,72.87
2018-12-15T21:34:17.604Z,72.52
2018-12-15T21:36:47.385Z,73.94
2018-12-15T21:39:17.174Z,72.78
2018-12-15T21:41:47.049Z,72.17
2018-12-15T21:44:16.841Z,71.57
2018-12-15T21:46:46.533Z,71.96
2018-12-15T21:49:16.229Z,71.59
2018-12-15T21:51:45.992Z,71.05
2018-12-15T21:54:15.925Z,72.52
2018-12-15T21:56:45.613Z,71.45
2018-12-15T21:59:15.309Z,71.78
2018-12-15T22:01:44.997Z,70.76
2018-12-15T22:04:14.835Z,71.12
2018-12-15T22:06:44.769Z,72.86
2018-12-15T22:09:14.473Z,73.35
2018-12-15T22:11:44.300Z,71.66
2018-12-15T22:14:13.995Z,71.29
2018-12-15T22:16:43.842Z,70.51
2018-12-15T22:19:13.612Z,71.24
2018-12-15T22:21:43.400Z,71.21
2018-12-15T22:24:13.228Z,71.03
2018-12-15T22:26:43.948Z,69.01
2018-12-15T22:29:13.681Z,69.98
2018-12-15T22:31:43.484Z,70.52
2018-12-15T22:34:13.321Z,69.38
2018-12-15T22:36:43.116Z,70.11
2018-12-15T22:39:13.809Z,68.30
2018-12-15T22:41:43.552Z,69.06
2018-12-15T22:44:14.446Z,68.65
2018-12-15T22:46:44.412Z,69.00
2018-12-15T22:49:14.233Z,67.60
2018-12-15T22:51:43.930Z,68.52
2018-12-15T22:54:13.608Z,67.91
2018-12-15T22:56:43.573Z,68.96
2018-12-15T22:59:13.276Z,67.15
2018-12-15T23:01:45.860Z,68.14
2018-12-15T23:04:15.909Z,67.64
2018-12-15T23:06:45.744Z,67.29
2018-12-15T23:09:15.509Z,66.91
2018-12-15T23:11:45.208Z,67.29
2018-12-15T23:14:14.897Z,67.40
2018-12-15T23:16:44.628Z,66.86
2018-12-15T23:19:14.357Z,67.48
2018-12-15T23:21:44.024Z,66.90
2018-12-15T23:24:13.872Z,68.43
2018-12-15T23:26:43.741Z,67.69
2018-12-15T23:29:13.417Z,67.13
2018-12-15T23:31:43.200Z,66.68
2018-12-15T23:34:13.213Z,67.92
2018-12-15T23:36:43.008Z,67.16
2018-12-15T23:39:12.751Z,67.36
2018-12-15T23:41:42.517Z,67.60
2018-12-15T23:44:12.276Z,67.38
2018-12-15T23:46:42.169Z,66.74
2018-12-15T23:49:12.006Z,68.20
2018-12-15T23:51:41.797Z,67.84
2018-12-15T23:54:11.525Z,67.65
2018-12-15T23:56:41.302Z,67.55
2018-12-15T23:59:10.988Z,69.25
